Time;durP1;ratioP1;P1;durP2;ratioP2;P2;SDS_P1;SDS_P2;PMS_P1;PMS_P2;Temp;Humidity;BMP_temperature;BMP_pressure;BME280_temperature;BME280_humidity;BME280_pressure;Samples;Min_cycle;Max_cycle;Signal;HPM_P1;HPM_P2
2022/07/11 00:01:03;;;;;;;10.75;5.47;;;;;;;15.69;90.14;102310.56;4892899;29;20044;-72
2022/07/11 00:03:28;;;;;;;12.23;6.97;;;;;;;15.67;90.36;102312.63;4892905;29;20057;-72
2022/07/11 00:05:54;;;;;;;11.43;5.80;;;;;;;15.64;90.14;102319.22;4893683;29;20433;-72
2022/07/11 00:08:19;;;;;;;12.80;6.32;;;;;;;15.58;90.60;102306.53;4893898;29;20041;-73
2022/07/11 00:10:46;;;;;;;12.13;6.72;;;;;;;15.61;90.36;102318.75;4893951;29;20064;-73
2022/07/11 00:13:12;;;;;;;14.52;7.22;;;;;;;15.55;90.83;102315.81;4893850;29;20145;-73
2022/07/11 00:15:38;;;;;;;12.38;6.80;;;;;;;15.55;91.16;102320.38;4893701;29;20116;-72
2022/07/11 00:18:03;;;;;;;21.02;6.65;;;;;;;15.50;91.18;102312.03;4893764;29;20644;-73
2022/07/11 00:20:28;;;;;;;13.90;6.95;;;;;;;15.54;91.22;102313.34;4876852;29;20036;-73
2022/07/11 00:22:54;;;;;;;14.18;6.53;;;;;;;15.52;91.21;102305.44;4893719;29;20637;-72
2022/07/11 00:25:20;;;;;;;12.93;7.25;;;;;;;15.49;91.55;102305.00;4893862;29;20075;-72
2022/07/11 00:27:45;;;;;;;14.13;6.93;;;;;;;15.46;91.42;102300.84;4893450;29;20029;-72
2022/07/11 00:30:11;;;;;;;13.77;6.90;;;;;;;15.44;91.24;102304.75;4893586;29;20388;-73
2022/07/11 00:32:36;;;;;;;14.48;7.20;;;;;;;15.39;91.22;102299.13;4893574;29;20032;-73
2022/07/11 00:35:02;;;;;;;17.73;6.78;;;;;;;15.35;90.65;102309.41;4893677;29;20126;-72
2022/07/11 00:37:28;;;;;;;14.35;6.95;;;;;;;15.31;92.15;102303.59;4894733;29;20041;-72
2022/07/11 00:39:53;;;;;;;13.85;7.40;;;;;;;15.26;91.48;102299.84;4897125;29;20036;-72
2022/07/11 00:42:19;;;;;;;14.75;6.60;;;;;;;15.24;91.80;102304.56;4896555;29;20404;-72
2022/07/11 00:44:44;;;;;;;12.88;6.45;;;;;;;15.22;92.46;102295.84;4896771;29;20032;-72
2022/07/11 00:47:09;;;;;;;10.70;6.20;;;;;;;15.19;92.95;102290.88;4896782;29;20025;-73
2022/07/11 00:49:35;;;;;;;15.52;7.07;;;;;;;15.14;93.26;102288.75;4896905;29;20024;-73
2022/07/11 00:52:00;;;;;;;14.02;7.75;;;;;;;15.08;93.54;102289.53;4896796;29;20068;-72
2022/07/11 00:54:27;;;;;;;11.40;6.88;;;;;;;15.05;93.99;102287.22;4896867;29;20123;-72
2022/07/11 00:56:53;;;;;;;12.80;7.13;;;;;;;15.02;94.38;102293.81;4896752;29;20099;-72
2022/07/11 00:59:19;;;;;;;14.00;7.20;;;;;;;14.99;94.33;102288.81;4896473;29;20044;-72
2022/07/11 01:01:45;;;;;;;13.70;7.55;;;;;;;14.99;94.75;102285.31;4896374;29;20033;-72
2022/07/11 01:04:10;;;;;;;13.93;6.75;;;;;;;14.89;95.07;102275.69;4896488;29;20060;-66
2022/07/11 01:06:36;;;;;;;14.55;6.72;;;;;;;14.99;95.17;102291.50;4896548;29;20055;-66
2022/07/11 01:09:02;;;;;;;14.88;7.75;;;;;;;15.03;95.54;102287.41;4896470;29;20024;-67
2022/07/11 01:11:27;;;;;;;16.63;8.98;;;;;;;15.11;96.11;102289.97;4879571;29;20048;-66
2022/07/11 01:13:53;;;;;;;16.15;7.47;;;;;;;15.08;96.80;102281.47;4896516;29;20050;-66
2022/07/11 01:16:22;;;;;;;22.10;8.93;;;;;;;15.13;96.69;102292.47;4896249;29;20052;-66
2022/07/11 01:18:52;;;;;;;18.02;8.65;;;;;;;15.14;97.03;102283.38;4896316;29;20028;-66
2022/07/11 01:21:25;;;;;;;13.85;7.45;;;;;;;15.19;96.44;102285.50;4896452;29;20134;-66
2022/07/11 01:23:52;;;;;;;15.65;6.80;;;;;;;15.18;96.20;102271.22;4895897;29;20031;-66
2022/07/11 01:26:19;;;;;;;14.18;7.32;;;;;;;15.25;96.30;102279.38;4896134;29;20084;-66
2022/07/11 01:28:45;;;;;;;14.75;8.82;;;;;;;15.26;96.42;102275.63;4896252;29;20033;-67
2022/07/11 01:31:12;;;;;;;16.58;9.30;;;;;;;15.28;96.53;102281.66;4896080;29;20551;-66
2022/07/11 01:33:38;;;;;;;17.55;7.32;;;;;;;15.31;96.50;102287.47;4896141;29;20123;-66
2022/07/11 01:36:04;;;;;;;17.10;8.70;;;;;;;15.31;96.64;102274.03;4896160;29;20111;-66
2022/07/11 01:38:29;;;;;;;16.30;7.82;;;;;;;15.35;97.02;102285.22;4895911;29;20128;-66
2022/07/11 01:40:55;;;;;;;14.95;8.02;;;;;;;15.39;97.21;102274.94;4895978;29;20035;-66
2022/07/11 01:43:20;;;;;;;15.85;7.88;;;;;;;15.40;97.22;102281.97;4895914;29;20052;-67
2022/07/11 01:45:45;;;;;;;12.32;7.57;;;;;;;15.43;97.07;102292.31;4895624;29;20031;-66
2022/07/11 01:48:11;;;;;;;15.35;9.23;;;;;;;15.47;97.30;102294.44;4895879;29;20043;-66
2022/07/11 01:50:36;;;;;;;16.20;7.80;;;;;;;15.50;97.79;102287.84;4895878;29;20028;-66
2022/07/11 01:53:02;;;;;;;13.00;8.18;;;;;;;15.53;97.63;102295.50;4895732;29;20404;-66
2022/07/11 01:55:27;;;;;;;15.02;8.10;;;;;;;15.54;97.68;102289.13;4894867;29;20045;-66
2022/07/11 01:57:53;;;;;;;16.25;8.75;;;;;;;15.56;97.68;102290.59;4895224;29;20046;-66
2022/07/11 02:00:18;;;;;;;17.38;9.15;;;;;;;15.54;97.70;102294.50;4895265;29;20074;-66
2022/07/11 02:02:44;;;;;;;18.88;9.18;;;;;;;15.55;97.79;102291.59;4878460;29;20060;-66
2022/07/11 02:05:09;;;;;;;23.90;9.52;;;;;;;15.60;98.03;102299.09;4895413;29;20036;-66
2022/07/11 02:10:18;;;;;;;16.60;8.70;;;;;;;15.65;98.11;102296.66;4895626;29;20129;-66
2022/07/11 02:12:44;;;;;;;16.48;8.55;;;;;;;15.67;98.28;102293.78;4895232;29;20127;-67
2022/07/11 02:15:09;;;;;;;23.27;9.13;;;;;;;15.71;98.14;102298.59;4895260;29;20029;-66
2022/07/11 02:17:34;;;;;;;18.33;9.18;;;;;;;15.72;98.18;102294.91;4895273;29;20464;-66
2022/07/11 02:20:00;;;;;;;16.70;8.82;;;;;;;15.71;98.66;102292.38;4895268;29;20032;-67
2022/07/11 02:22:26;;;;;;;13.63;6.97;;;;;;;15.71;98.11;102287.84;4895164;29;20389;-66
2022/07/11 02:24:52;;;;;;;12.27;6.95;;;;;;;15.76;97.88;102293.47;4878531;29;20099;-66
2022/07/11 02:27:17;;;;;;;16.70;8.20;;;;;;;15.81;97.55;102292.06;4894916;29;20111;-66
2022/07/11 02:29:42;;;;;;;13.27;6.78;;;;;;;15.85;97.34;102285.25;4895460;29;20468;-66
2022/07/11 02:32:08;;;;;;;14.32;7.95;;;;;;;15.89;97.13;102294.59;4895016;29;20361;-66
2022/07/11 02:34:33;;;;;;;13.68;6.97;;;;;;;15.91;96.62;102290.69;4894952;29;20044;-66
2022/07/11 02:36:58;;;;;;;14.50;7.43;;;;;;;15.93;96.76;102283.25;4894859;29;20029;-66
2022/07/11 02:39:24;;;;;;;13.00;7.53;;;;;;;15.92;96.62;102283.44;4894782;29;20043;-67
2022/07/11 02:41:49;;;;;;;13.55;7.45;;;;;;;15.93;96.82;102285.13;4894925;29;20042;-67
2022/07/11 02:44:15;;;;;;;16.58;8.02;;;;;;;15.96;96.69;102287.41;4894772;29;20039;-66
2022/07/11 02:46:40;;;;;;;12.18;7.20;;;;;;;15.99;96.93;102284.31;4894881;29;20029;-66
2022/07/11 02:49:05;;;;;;;13.27;6.18;;;;;;;15.98;96.92;102275.41;4894257;29;20038;-66
2022/07/11 02:51:31;;;;;;;12.77;6.57;;;;;;;16.00;96.79;102275.19;4877224;29;20036;-66
2022/07/11 02:53:56;;;;;;;13.60;8.00;;;;;;;16.00;96.53;102277.88;4894654;29;20124;-66
2022/07/11 02:56:22;;;;;;;12.27;7.03;;;;;;;16.02;96.54;102281.22;4894486;29;20047;-66
2022/07/11 02:58:47;;;;;;;16.30;6.18;;;;;;;16.04;96.40;102276.47;4894490;29;20139;-66
2022/07/11 03:01:12;;;;;;;14.52;7.05;;;;;;;16.06;96.46;102278.97;4894080;29;20130;-67
2022/07/11 03:03:38;;;;;;;11.68;5.68;;;;;;;16.04;96.54;102278.34;4894545;29;20052;-66
2022/07/11 03:06:03;;;;;;;10.02;6.53;;;;;;;16.05;96.41;102275.44;4894659;29;20949;-66
2022/07/11 03:08:29;;;;;;;12.80;6.03;;;;;;;16.06;96.32;102279.81;4894429;29;20047;-66
2022/07/11 03:10:54;;;;;;;10.98;5.72;;;;;;;16.05;96.30;102280.81;4894322;29;20153;-66
2022/07/11 03:13:19;;;;;;;9.60;5.35;;;;;;;16.07;96.71;102273.38;4894417;29;20040;-66
2022/07/11 03:15:45;;;;;;;16.23;6.20;;;;;;;16.09;96.60;102274.03;4894343;29;20028;-67
2022/07/11 03:18:10;;;;;;;12.23;6.55;;;;;;;16.07;96.73;102278.78;4894452;29;20029;-66
2022/07/11 03:20:35;;;;;;;12.52;6.70;;;;;;;16.07;96.73;102288.72;4894286;29;20039;-67
2022/07/11 03:23:01;;;;;;;10.82;5.30;;;;;;;16.07;96.90;102286.03;4894345;29;20099;-67
2022/07/11 03:25:26;;;;;;;11.45;5.47;;;;;;;16.06;96.95;102282.50;4894397;29;20032;-66
2022/07/11 03:27:52;;;;;;;10.20;5.88;;;;;;;16.05;97.36;102285.38;4894041;29;20056;-66
2022/07/11 03:30:17;;;;;;;10.07;5.18;;;;;;;16.07;97.32;102289.53;4894199;29;20041;-66
2022/07/11 03:32:42;;;;;;;12.13;5.75;;;;;;;16.08;97.42;102293.88;4894142;29;20029;-66
2022/07/11 03:37:52;;;;;;;13.25;6.32;;;;;;;16.12;96.97;102288.94;4894198;29;20524;-66
2022/07/11 03:40:17;;;;;;;11.75;5.88;;;;;;;16.09;97.40;102286.66;4893913;29;20036;-66
2022/07/11 03:42:44;;;;;;;10.85;5.90;;;;;;;16.12;97.18;102287.09;4877389;29;20031;-66
2022/07/11 03:45:10;;;;;;;9.77;4.93;;;;;;;16.15;97.16;102294.75;4893945;29;20028;-66
2022/07/11 03:47:36;;;;;;;9.57;5.65;;;;;;;16.17;97.30;102295.41;4893846;29;20036;-66
2022/07/11 03:50:02;;;;;;;13.75;6.57;;;;;;;16.16;97.05;102290.19;4893885;29;20033;-66
2022/07/11 03:52:27;;;;;;;15.20;5.68;;;;;;;16.17;96.96;102287.31;4876822;29;20040;-67
2022/07/11 03:54:52;;;;;;;8.52;5.10;;;;;;;16.18;96.83;102288.97;4893778;29;20401;-66
2022/07/11 03:57:18;;;;;;;8.90;5.30;;;;;;;16.20;96.92;102283.41;4893762;29;20025;-66
2022/07/11 03:59:43;;;;;;;11.05;5.82;;;;;;;16.16;96.74;102284.81;4893172;29;20028;-66
2022/07/11 04:02:08;;;;;;;9.60;5.25;;;;;;;16.23;96.51;102288.38;4893133;29;20067;-66
2022/07/11 04:04:34;;;;;;;13.65;5.80;;;;;;;16.24;96.42;102292.72;4893860;29;20615;-67
2022/07/11 04:06:59;;;;;;;9.50;4.47;;;;;;;16.26;96.29;102293.38;4893852;29;20594;-66
2022/07/11 04:09:25;;;;;;;9.02;4.75;;;;;;;16.27;95.98;102291.50;4893670;29;20029;-67
2022/07/11 04:11:50;;;;;;;8.32;4.65;;;;;;;16.27;96.33;102288.81;4893446;29;20037;-66
2022/07/11 04:14:16;;;;;;;10.93;4.63;;;;;;;16.25;96.27;102291.72;4897209;29;20077;-67
2022/07/11 04:16:41;;;;;;;10.70;5.13;;;;;;;16.26;96.58;102287.16;4897436;29;20464;-66
2022/07/11 04:19:06;;;;;;;9.35;5.18;;;;;;;16.25;96.36;102288.19;4880571;29;20055;-66
2022/07/11 04:21:32;;;;;;;9.57;4.38;;;;;;;16.23;96.30;102282.16;4897412;29;20036;-66
2022/07/11 04:23:57;;;;;;;9.27;5.38;;;;;;;16.26;96.45;102287.16;4897272;29;20032;-66
2022/07/11 04:26:22;;;;;;;6.65;4.13;;;;;;;16.23;96.18;102277.63;4897348;29;20098;-66
2022/07/11 04:28:48;;;;;;;6.68;4.65;;;;;;;16.30;96.18;102283.88;4896994;29;20076;-66
2022/07/11 04:31:13;;;;;;;7.93;5.40;;;;;;;16.32;96.08;102286.34;4897192;29;20040;-66
2022/07/11 04:33:38;;;;;;;9.48;4.97;;;;;;;16.27;96.41;102284.28;4896939;29;20075;-66
2022/07/11 04:36:04;;;;;;;11.23;5.72;;;;;;;16.33;96.15;102294.25;4897361;29;20051;-66
2022/07/11 04:38:29;;;;;;;15.70;6.30;;;;;;;16.36;96.13;102301.09;4896729;29;20373;-66
2022/07/11 04:40:55;;;;;;;11.38;5.28;;;;;;;16.37;96.41;102294.66;4880089;29;20134;-66
2022/07/11 04:43:20;;;;;;;7.35;4.78;;;;;;;16.31;95.95;102290.09;4897036;29;20043;-66
2022/07/11 04:45:45;;;;;;;14.63;6.18;;;;;;;16.34;96.05;102295.88;4897039;29;20032;-66
2022/07/11 04:48:11;;;;;;;11.40;5.25;;;;;;;16.38;96.51;102305.25;4896293;29;20028;-67
2022/07/11 04:50:36;;;;;;;8.95;5.03;;;;;;;16.38;96.16;102304.41;4896823;29;20032;-66
2022/07/11 04:53:02;;;;;;;9.20;5.72;;;;;;;16.38;96.66;102310.63;4896720;29;20090;-66
2022/07/11 04:55:27;;;;;;;11.02;5.90;;;;;;;16.38;96.78;102315.19;4896620;29;20036;-67
2022/07/11 04:57:53;;;;;;;13.75;6.55;;;;;;;16.37;96.57;102316.19;4896518;29;20036;-66
2022/07/11 05:00:19;;;;;;;13.45;5.50;;;;;;;16.39;96.77;102312.28;4896604;29;20036;-67
2022/07/11 05:02:44;;;;;;;15.40;6.72;;;;;;;16.40;96.37;102321.19;4896578;29;20044;-66
2022/07/11 05:05:10;;;;;;;8.85;4.82;;;;;;;16.39;96.47;102308.75;4896267;29;20051;-67
2022/07/11 05:07:36;;;;;;;11.45;5.28;;;;;;;16.35;96.32;102311.03;4896453;29;20146;-66
2022/07/11 05:10:02;;;;;;;11.73;6.22;;;;;;;16.39;96.67;102322.22;4896519;29;20499;-67
2022/07/11 05:12:28;;;;;;;9.55;5.05;;;;;;;16.40;96.56;102322.03;4896392;29;20072;-66
2022/07/11 05:14:53;;;;;;;12.13;5.00;;;;;;;16.39;96.42;102311.44;4896117;29;20109;-66
2022/07/11 05:17:19;;;;;;;10.55;5.95;;;;;;;16.35;96.48;102318.28;4896173;29;20393;-67
2022/07/11 05:19:44;;;;;;;12.07;5.63;;;;;;;16.38;96.00;102315.19;4896077;29;20033;-66
2022/07/11 05:22:10;;;;;;;10.93;4.57;;;;;;;16.37;96.33;102310.81;4879126;29;20083;-66
2022/07/11 05:24:36;;;;;;;8.80;4.13;;;;;;;16.39;96.52;102316.84;4878934;29;20491;-66
2022/07/11 05:27:02;;;;;;;14.35;6.22;;;;;;;16.39;96.51;102317.66;4896221;29;20036;-66
2022/07/11 05:29:28;;;;;;;10.50;4.50;;;;;;;16.39;96.87;102317.66;4896057;29;20041;-66
2022/07/11 05:31:53;;;;;;;10.15;4.88;;;;;;;16.36;96.81;102318.06;4896119;29;20033;-66
2022/07/11 05:34:19;;;;;;;14.82;5.82;;;;;;;16.40;97.19;102324.72;4895914;29;20029;-66
2022/07/11 05:36:45;;;;;;;7.32;4.38;;;;;;;16.38;97.04;102326.78;4895559;29;20048;-67
2022/07/11 05:39:10;;;;;;;7.07;4.32;;;;;;;16.36;97.18;102317.25;4895762;29;20037;-66
2022/07/11 05:41:36;;;;;;;10.23;4.50;;;;;;;16.41;96.94;102328.25;4895966;29;20037;-66
2022/07/11 05:44:01;;;;;;;6.93;3.90;;;;;;;16.42;97.07;102325.34;4895957;29;20449;-66
2022/07/11 05:46:26;;;;;;;11.95;4.32;;;;;;;16.41;97.00;102321.00;4896043;29;20540;-66
2022/07/11 05:48:52;;;;;;;9.48;3.95;;;;;;;16.43;96.62;102334.28;4895652;29;20488;-66
2022/07/11 05:51:18;;;;;;;6.75;3.70;;;;;;;16.46;96.79;102327.66;4895386;29;20036;-66
2022/07/11 05:53:44;;;;;;;14.88;4.05;;;;;;;16.44;97.03;102334.06;4895551;29;20036;-66
2022/07/11 05:56:09;;;;;;;7.13;2.90;;;;;;;16.47;96.11;102332.81;4895520;29;20527;-67
2022/07/11 05:58:35;;;;;;;4.43;2.20;;;;;;;16.50;95.78;102340.50;4895293;29;21186;-66
2022/07/11 06:01:00;;;;;;;4.93;2.65;;;;;;;16.52;95.58;102343.00;4895498;29;20503;-66
2022/07/11 06:03:26;;;;;;;8.93;2.65;;;;;;;16.52;95.91;102337.63;4895041;29;20056;-66
2022/07/11 06:05:51;;;;;;;4.97;3.10;;;;;;;16.54;95.64;102347.16;4895342;29;20070;-66
2022/07/11 06:11:01;;;;;;;5.53;2.33;;;;;;;16.58;95.81;102358.38;4895344;29;20039;-66
2022/07/11 06:13:29;;;;;;;5.88;2.63;;;;;;;16.54;95.63;102347.16;4895251;29;20021;-66
2022/07/11 06:15:55;;;;;;;6.22;2.67;;;;;;;16.56;95.85;102353.19;4895136;29;20033;-66
2022/07/11 06:18:20;;;;;;;7.25;2.05;;;;;;;16.54;95.86;102355.25;4895152;29;20036;-66
2022/07/11 06:20:46;;;;;;;5.80;2.65;;;;;;;16.54;96.00;102347.16;4895337;29;20112;-66
2022/07/11 06:23:11;;;;;;;6.45;2.90;;;;;;;16.52;96.16;102348.41;4895116;29;20040;-67
2022/07/11 06:25:37;;;;;;;5.93;2.90;;;;;;;16.54;96.50;102349.84;4895122;29;20501;-66
2022/07/11 06:28:04;;;;;;;10.50;3.75;;;;;;;16.54;96.99;102354.41;4895101;29;20029;-66
2022/07/11 06:30:30;;;;;;;5.03;3.25;;;;;;;16.53;96.97;102356.28;4895155;29;20028;-66
2022/07/11 06:32:57;;;;;;;8.77;3.67;;;;;;;16.54;97.51;102357.13;4894980;29;20056;-66
2022/07/11 06:35:22;;;;;;;7.32;3.00;;;;;;;16.56;97.47;102357.75;4894193;29;20047;-66
2022/07/11 06:37:47;;;;;;;5.70;3.35;;;;;;;16.57;97.60;102359.41;4894673;29;20066;-66
2022/07/11 06:40:13;;;;;;;5.22;2.90;;;;;;;16.53;97.82;102348.22;4894315;29;20529;-66
2022/07/11 06:42:38;;;;;;;11.23;4.25;;;;;;;16.59;97.68;102350.09;4894904;29;20036;-66
2022/07/11 06:45:04;;;;;;;7.53;3.05;;;;;;;16.62;97.39;102356.94;4894780;29;20028;-66
2022/07/11 06:47:30;;;;;;;7.00;3.45;;;;;;;16.73;97.77;102350.97;4894804;29;20074;-66
2022/07/11 06:49:55;;;;;;;9.02;5.20;;;;;;;16.80;97.49;102342.97;4894695;29;20039;-67
2022/07/11 06:52:21;;;;;;;7.13;4.65;;;;;;;16.91;97.65;102347.78;4894687;29;20036;-67
2022/07/11 06:54:46;;;;;;;8.00;4.20;;;;;;;16.96;96.29;102348.00;4894642;29;20044;-67
2022/07/11 06:57:11;;;;;;;5.20;4.00;;;;;;;17.02;96.20;102349.88;4888578;29;20089;-68
2022/07/11 06:59:37;;;;;;;6.03;4.70;;;;;;;17.03;95.49;102345.34;4894246;29;20040;-67
2022/07/11 07:02:02;;;;;;;10.88;5.18;;;;;;;17.04;95.38;102339.72;4894362;29;20039;-67
2022/07/11 07:04:28;;;;;;;5.63;3.95;;;;;;;17.06;95.20;102339.53;4894330;29;20165;-67
2022/07/11 07:06:53;;;;;;;7.25;3.40;;;;;;;17.05;93.74;102341.38;4894331;29;20040;-74
2022/07/11 07:09:18;;;;;;;5.47;3.42;;;;;;;17.04;93.50;102339.72;4894229;29;20125;-74
2022/07/11 07:11:44;;;;;;;8.05;3.88;;;;;;;17.06;93.33;102334.97;4893771;29;20641;-73
2022/07/11 07:14:09;;;;;;;6.90;3.30;;;;;;;17.12;93.22;102341.41;4893999;29;20029;-73
2022/07/11 07:16:35;;;;;;;4.57;3.40;;;;;;;17.19;93.33;102336.03;4893896;29;20064;-75
2022/07/11 07:19:00;;;;;;;5.90;3.13;;;;;;;17.24;92.03;102334.38;4894251;29;20028;-73
2022/07/11 07:21:25;;;;;;;3.35;2.40;;;;;;;17.28;91.78;102334.78;4894428;29;20036;-74
2022/07/11 07:23:51;;;;;;;14.05;3.40;;;;;;;17.37;91.92;102341.66;4894285;29;20585;-73
2022/07/11 07:26:16;;;;;;;6.28;3.00;;;;;;;17.41;91.05;102331.28;4894218;29;20028;-74
2022/07/11 07:28:42;;;;;;;2.42;2.22;;;;;;;17.43;90.89;102340.00;4894379;29;20064;-72
2022/07/11 07:31:07;;;;;;;4.43;3.08;;;;;;;17.46;90.69;102336.91;4894061;29;20591;-72
2022/07/11 07:33:33;;;;;;;5.20;2.30;;;;;;;17.48;90.40;102338.34;4894144;29;20032;-73
2022/07/11 07:35:58;;;;;;;6.18;2.35;;;;;;;17.52;90.22;102336.88;4894091;29;20111;-72
2022/07/11 07:38:23;;;;;;;2.42;2.03;;;;;;;17.55;90.08;102332.94;4893803;29;20400;-73
2022/07/11 07:40:49;;;;;;;4.65;2.53;;;;;;;17.62;89.79;102336.50;4893856;29;20032;-73
2022/07/11 07:43:14;;;;;;;2.70;2.05;;;;;;;17.68;89.03;102334.81;4893850;29;20481;-73
2022/07/11 07:45:39;;;;;;;2.90;2.40;;;;;;;17.72;89.54;102336.09;4894110;29;20036;-73
2022/07/11 07:48:05;;;;;;;3.50;2.40;;;;;;;17.70;88.53;102335.44;4897858;29;20046;-73
2022/07/11 07:50:30;;;;;;;4.95;2.33;;;;;;;17.75;88.32;102349.16;4897889;29;20084;-74
2022/07/11 07:52:56;;;;;;;3.15;2.53;;;;;;;17.74;88.23;102355.59;4897765;29;20060;-74
2022/07/11 07:55:21;;;;;;;5.88;2.63;;;;;;;17.68;88.99;102341.06;4897877;29;20393;-74
2022/07/11 07:57:47;;;;;;;4.45;2.35;;;;;;;17.66;88.62;102345.84;4897246;29;20096;-75
2022/07/11 08:03:03;;;;;;;7.13;2.47;;;;;;;17.58;88.45;102351.44;4897741;29;20728;-74
2022/07/11 08:05:29;;;;;;;4.28;3.10;;;;;;;17.55;89.26;102357.22;4897716;29;20039;-74
2022/07/11 08:07:54;;;;;;;3.65;2.55;;;;;;;17.56;89.06;102358.09;4897549;29;20032;-74
2022/07/11 08:10:20;;;;;;;5.88;2.40;;;;;;;17.53;89.38;102352.06;4897692;29;20041;-74
2022/07/11 08:12:45;;;;;;;4.40;2.97;;;;;;;17.52;89.28;102355.78;4897325;29;20421;-74
2022/07/11 08:15:11;;;;;;;3.92;2.35;;;;;;;17.56;88.88;102363.47;4897186;29;20044;-74
2022/07/11 08:17:36;;;;;;;4.82;2.33;;;;;;;17.58;89.41;102354.16;4897387;29;20063;-73
2022/07/11 08:20:01;;;;;;;3.97;2.83;;;;;;;17.57;88.55;102352.47;4897425;29;20080;-73
2022/07/11 08:22:27;;;;;;;5.00;2.53;;;;;;;17.57;89.62;102360.56;4897465;29;20111;-73
2022/07/11 08:24:52;;;;;;;5.95;2.40;;;;;;;17.52;89.52;102355.78;4897325;29;20040;-74
2022/07/11 08:27:17;;;;;;;9.70;3.47;;;;;;;17.58;89.25;102366.78;4897309;29;20028;-73
2022/07/11 08:29:43;;;;;;;5.00;2.83;;;;;;;17.58;89.17;102362.25;4897136;29;21055;-74
2022/07/11 08:32:08;;;;;;;7.35;4.25;;;;;;;17.60;89.04;102364.72;4897197;29;20104;-74
2022/07/11 08:34:34;;;;;;;5.78;2.60;;;;;;;17.59;87.99;102352.28;4896913;29;20032;-74
2022/07/11 08:37:00;;;;;;;6.40;3.38;;;;;;;17.59;87.43;102365.75;4896806;29;20054;-74
2022/07/11 08:39:25;;;;;;;6.15;2.55;;;;;;;17.62;88.33;102357.25;4896962;29;20040;-73
2022/07/11 08:41:51;;;;;;;5.43;3.20;;;;;;;17.66;88.35;102369.31;4897071;29;20025;-73
2022/07/11 08:44:16;;;;;;;7.80;4.13;;;;;;;17.68;87.45;102367.19;4896833;29;20071;-73
2022/07/11 08:46:42;;;;;;;7.53;3.70;;;;;;;17.71;88.20;102361.38;4896715;29;20384;-74
2022/07/11 08:49:08;;;;;;;8.73;4.43;;;;;;;17.76;87.13;102364.28;4896843;29;20029;-74
2022/07/11 08:51:37;;;;;;;8.15;3.40;;;;;;;17.78;87.32;102361.41;4895098;29;20034;-72
2022/07/11 08:54:03;;;;;;;11.00;4.78;;;;;;;17.79;87.39;102361.25;4895801;29;20033;-68
2022/07/11 08:56:31;;;;;;;9.18;5.50;;;;;;;17.76;87.54;102356.19;4896646;29;20029;-73
2022/07/11 08:58:59;;;;;;;8.98;4.10;;;;;;;17.79;87.23;102363.06;4895693;29;20047;-74
2022/07/11 09:01:33;;;;;;;9.32;4.57;;;;;;;17.75;87.30;102355.38;4896049;29;20036;-75
2022/07/11 09:03:59;;;;;;;7.72;4.28;;;;;;;17.83;87.42;102358.94;4896396;29;20057;-73
2022/07/11 09:06:25;;;;;;;9.98;4.53;;;;;;;17.78;87.20;102351.44;4896190;29;20605;-68
2022/07/11 09:08:50;;;;;;;10.75;4.05;;;;;;;17.84;87.59;102352.50;4896710;29;20075;-68
2022/07/11 09:11:15;;;;;;;11.93;5.45;;;;;;;17.82;87.70;102350.03;4896578;29;20151;-73
2022/07/11 09:13:41;;;;;;;7.68;4.22;;;;;;;17.87;87.69;102360.22;4896360;29;20137;-71
2022/07/11 09:16:08;;;;;;;9.77;4.03;;;;;;;17.87;87.63;102366.44;4896360;29;20036;-68
2022/07/11 09:18:33;;;;;;;6.72;3.00;;;;;;;17.86;87.08;102364.75;4896012;29;20028;-68
2022/07/11 09:26:41;;;;;;;6.72;3.08;;;;;;;17.93;86.58;102364.75;4896628;29;20051;-68
2022/07/11 09:29:09;;;;;;;5.45;3.10;;;;;;;17.86;87.40;102362.03;4896114;29;20043;-68
2022/07/11 09:31:35;;;;;;;5.05;2.67;;;;;;;17.82;87.72;102358.13;4896337;29;20055;-67
2022/07/11 09:34:08;;;;;;;5.15;2.92;;;;;;;17.76;86.94;102358.91;4895885;29;20032;-67
2022/07/11 09:36:56;;;;;;;6.57;3.08;;;;;;;17.75;86.99;102360.78;4895834;29;20033;-66
2022/07/11 09:39:29;;;;;;;5.47;2.70;;;;;;;17.77;87.20;102368.69;4895755;29;20044;-66
2022/07/11 09:41:56;;;;;;;5.63;3.17;;;;;;;17.73;87.76;102348.53;4895925;29;20517;-66
2022/07/11 09:44:28;;;;;;;14.50;4.03;;;;;;;17.85;86.58;102356.88;4895886;29;20033;-67
2022/07/11 09:46:56;;;;;;;5.50;3.50;;;;;;;17.95;85.96;102363.50;4895698;29;20059;-67
2022/07/11 09:49:39;;;;;;;4.68;2.90;;;;;;;18.08;86.67;102361.84;4895736;29;20084;-67
2022/07/11 09:52:11;;;;;;;6.75;2.90;;;;;;;18.18;86.26;102367.63;4895735;29;20035;-67
2022/07/11 09:54:57;;;;;;;5.35;2.67;;;;;;;18.33;85.61;102368.22;4895843;29;20033;-68
2022/07/11 09:57:49;;;;;;;4.07;2.70;;;;;;;18.48;84.50;102356.34;4895508;29;20365;-68
2022/07/11 10:00:14;;;;;;;3.17;2.28;;;;;;;18.56;84.54;102361.53;4890872;29;20057;-68
2022/07/11 10:02:40;;;;;;;4.70;2.40;;;;;;;18.63;82.53;102365.03;4893923;29;20500;-68
2022/07/11 10:05:06;;;;;;;3.97;2.55;;;;;;;18.69;82.41;102363.34;4876896;29;20052;-68
2022/07/11 10:07:32;;;;;;;4.75;2.55;;;;;;;18.79;82.33;102361.06;4876901;29;20040;-66
2022/07/11 10:10:00;;;;;;;4.25;2.10;;;;;;;18.82;81.40;102360.63;4870870;29;20037;-67
2022/07/11 10:12:29;;;;;;;5.57;2.15;;;;;;;18.83;81.16;102363.09;4872897;29;20028;-67
2022/07/11 10:14:56;;;;;;;3.35;2.00;;;;;;;18.82;81.69;102352.53;4872813;29;20028;-67
2022/07/11 10:17:59;;;;;;;2.95;1.98;;;;;;;19.00;81.15;102365.34;4872701;29;20027;-75
2022/07/11 10:20:50;;;;;;;4.18;1.65;;;;;;;19.05;80.79;102373.63;4872519;29;20568;-67
2022/07/11 10:23:38;;;;;;;2.08;1.70;;;;;;;19.10;80.77;102370.25;4868013;29;20045;-67
2022/07/11 10:26:17;;;;;;;2.50;1.70;;;;;;;19.07;80.53;102374.22;4872609;29;20457;-67
2022/07/11 10:28:49;;;;;;;2.75;1.80;;;;;;;19.04;80.19;102372.78;4872569;29;20039;-68
2022/07/11 10:31:19;;;;;;;4.28;2.20;;;;;;;19.02;79.67;102374.88;4872479;29;20100;-67
2022/07/11 10:34:42;;;;;;;2.38;1.52;;;;;;;18.99;80.82;102375.31;4872397;29;20048;-73
2022/07/11 10:37:02;;;;;;;4.63;2.40;;;;;;;18.96;80.30;102373.03;4869055;29;20033;-72
2022/07/11 10:39:28;;;;;;;6.35;3.08;;;;;;;18.93;80.80;102367.22;4870505;29;21671;-74
2022/07/11 10:41:57;;;;;;;3.08;2.30;;;;;;;18.93;80.88;102370.75;4872042;29;20037;-72
2022/07/11 10:44:24;;;;;;;3.08;2.25;;;;;;;19.04;80.20;102371.94;4872202;29;20060;-74
2022/07/11 10:46:50;;;;;;;4.68;2.80;;;;;;;19.15;80.50;102371.28;4872147;29;20029;-72
2022/07/11 10:49:18;;;;;;;7.68;3.00;;;;;;;19.15;78.68;102368.59;4871764;29;20080;-73
2022/07/11 10:51:49;;;;;;;5.22;2.78;;;;;;;19.21;79.80;102375.81;4871974;29;20431;-75
2022/07/11 10:54:42;;;;;;;8.02;3.95;;;;;;;19.30;80.67;102375.56;4872159;29;20077;-72
2022/07/11 10:57:19;;;;;;;6.63;4.07;;;;;;;19.31;79.14;102372.66;4872801;29;20029;-74
2022/07/11 10:59:54;;;;;;;4.95;3.53;;;;;;;19.33;79.47;102375.13;4859023;29;20128;-72
2022/07/11 11:02:20;;;;;;;5.22;3.25;;;;;;;19.32;79.26;102368.88;4875832;29;20041;-73
2022/07/11 11:04:58;;;;;;;4.10;3.35;;;;;;;19.28;79.41;102375.75;4875710;29;20105;-73
2022/07/11 11:07:49;;;;;;;6.47;3.70;;;;;;;19.36;80.39;102380.09;4875370;29;20028;-72
2022/07/11 11:10:17;;;;;;;5.18;4.03;;;;;;;19.31;79.60;102374.50;4875071;29;20049;-72
2022/07/11 11:13:05;;;;;;;6.10;2.85;;;;;;;19.25;79.11;102378.91;4875887;29;20029;-72
2022/07/11 11:15:54;;;;;;;3.72;2.25;;;;;;;19.16;79.60;102381.03;4875864;29;20462;-72
2022/07/11 11:18:22;;;;;;;3.67;2.30;;;;;;;19.21;79.78;102383.94;4875846;29;20108;-72
2022/07/11 11:20:57;;;;;;;3.90;2.33;;;;;;;19.26;80.22;102388.69;4875434;29;20056;-72
2022/07/11 11:23:24;;;;;;;2.55;2.15;;;;;;;19.27;79.94;102384.94;4875614;29;20029;-73
2022/07/11 11:25:50;;;;;;;4.72;2.30;;;;;;;19.31;79.74;102383.47;4875475;29;20032;-73
2022/07/11 11:28:20;;;;;;;9.52;2.55;;;;;;;19.37;79.70;102387.19;4875788;29;20538;-73
2022/07/11 11:30:56;;;;;;;4.30;2.90;;;;;;;19.47;79.76;102385.66;4875667;29;20041;-72
2022/07/11 11:33:21;;;;;;;3.65;2.67;;;;;;;19.63;78.83;102380.75;4843580;29;20081;-72
2022/07/11 11:36:06;;;;;;;3.88;2.42;;;;;;;19.81;77.96;102374.63;4875420;29;20437;-73
2022/07/11 11:38:40;;;;;;;3.75;2.67;;;;;;;19.95;77.83;102372.63;4875279;29;20044;-76